sensor_id;sensor_type;location;lat;lon;timestamp;P1;durP1;ratioP1;P2;durP2;ratioP2
52934;SDS011;38802;50.198;19.796;2023-02-13T00:01:05;37.20;;;19.70;;
52934;SDS011;38802;50.198;19.796;2023-02-13T00:03:33;37.60;;;19.90;;
52934;SDS011;38802;50.198;19.796;2023-02-13T00:06:01;48.20;;;21.70;;
52934;SDS011;38802;50.198;19.796;2023-02-13T00:08:29;47.80;;;22.90;;
52934;SDS011;38802;50.198;19.796;2023-02-13T00:10:57;44.50;;;23.80;;
52934;SDS011;38802;50.198;19.796;2023-02-13T00:13:26;52.70;;;24.50;;
52934;SDS011;38802;50.198;19.796;2023-02-13T00:15:58;50.90;;;25.00;;
52934;SDS011;38802;50.198;19.796;2023-02-13T00:18:28;59.30;;;26.00;;
52934;SDS011;38802;50.198;19.796;2023-02-13T00:21:00;48.70;;;27.40;;
52934;SDS011;38802;50.198;19.796;2023-02-13T00:23:31;58.80;;;27.70;;
52934;SDS011;38802;50.198;19.796;2023-02-13T00:26:00;59.10;;;27.30;;
52934;SDS011;38802;50.198;19.796;2023-02-13T00:28:33;59.20;;;29.10;;
52934;SDS011;38802;50.198;19.796;2023-02-13T00:31:07;65.50;;;28.90;;
52934;SDS011;38802;50.198;19.796;2023-02-13T00:33:37;61.90;;;29.20;;
52934;SDS011;38802;50.198;19.796;2023-02-13T00:36:09;61.60;;;30.00;;
52934;SDS011;38802;50.198;19.796;2023-02-13T00:38:42;64.70;;;31.60;;
52934;SDS011;38802;50.198;19.796;2023-02-13T00:41:12;64.30;;;30.00;;
52934;SDS011;38802;50.198;19.796;2023-02-13T00:43:41;60.90;;;30.20;;
52934;SDS011;38802;50.198;19.796;2023-02-13T00:46:09;70.80;;;33.00;;
52934;SDS011;38802;50.198;19.796;2023-02-13T00:48:37;68.10;;;32.00;;
52934;SDS011;38802;50.198;19.796;2023-02-13T00:51:06;63.90;;;31.10;;
52934;SDS011;38802;50.198;19.796;2023-02-13T00:53:35;69.10;;;31.60;;
52934;SDS011;38802;50.198;19.796;2023-02-13T00:56:04;64.40;;;30.70;;
52934;SDS011;38802;50.198;19.796;2023-02-13T00:58:35;58.40;;;29.90;;
52934;SDS011;38802;50.198;19.796;2023-02-13T01:01:04;82.90;;;33.90;;
52934;SDS011;38802;50.198;19.796;2023-02-13T01:03:32;68.10;;;31.10;;
52934;SDS011;38802;50.198;19.796;2023-02-13T01:06:00;70.90;;;32.40;;
52934;SDS011;38802;50.198;19.796;2023-02-13T01:08:29;63.50;;;32.40;;
52934;SDS011;38802;50.198;19.796;2023-02-13T01:10:57;68.60;;;30.90;;
52934;SDS011;38802;50.198;19.796;2023-02-13T01:13:25;62.90;;;31.40;;
52934;SDS011;38802;50.198;19.796;2023-02-13T01:15:55;62.60;;;32.20;;
52934;SDS011;38802;50.198;19.796;2023-02-13T01:18:23;63.20;;;31.20;;
52934;SDS011;38802;50.198;19.796;2023-02-13T01:21:13;66.20;;;32.90;;
52934;SDS011;38802;50.198;19.796;2023-02-13T01:23:44;56.50;;;29.70;;
52934;SDS011;38802;50.198;19.796;2023-02-13T01:26:16;68.90;;;32.10;;
52934;SDS011;38802;50.198;19.796;2023-02-13T01:28:50;66.50;;;31.00;;
52934;SDS011;38802;50.198;19.796;2023-02-13T01:31:20;65.90;;;31.50;;
52934;SDS011;38802;50.198;19.796;2023-02-13T01:33:50;65.00;;;31.10;;
52934;SDS011;38802;50.198;19.796;2023-02-13T01:36:21;65.10;;;29.70;;
52934;SDS011;38802;50.198;19.796;2023-02-13T01:38:53;61.30;;;30.00;;
52934;SDS011;38802;50.198;19.796;2023-02-13T01:41:23;78.10;;;34.70;;
52934;SDS011;38802;50.198;19.796;2023-02-13T01:43:57;63.20;;;30.30;;
52934;SDS011;38802;50.198;19.796;2023-02-13T01:46:37;70.20;;;32.10;;
52934;SDS011;38802;50.198;19.796;2023-02-13T01:49:13;70.40;;;32.20;;
52934;SDS011;38802;50.198;19.796;2023-02-13T01:51:45;69.60;;;32.00;;
52934;SDS011;38802;50.198;19.796;2023-02-13T01:54:20;68.50;;;32.90;;
52934;SDS011;38802;50.198;19.796;2023-02-13T01:57:33;68.30;;;32.40;;
52934;SDS011;38802;50.198;19.796;2023-02-13T01:59:56;71.40;;;31.90;;
52934;SDS011;38802;50.198;19.796;2023-02-13T02:02:28;69.30;;;32.30;;
52934;SDS011;38802;50.198;19.796;2023-02-13T02:05:00;64.00;;;31.70;;
52934;SDS011;38802;50.198;19.796;2023-02-13T02:07:30;70.50;;;33.00;;
52934;SDS011;38802;50.198;19.796;2023-02-13T02:10:04;67.90;;;33.00;;
52934;SDS011;38802;50.198;19.796;2023-02-13T02:12:42;71.90;;;35.00;;
52934;SDS011;38802;50.198;19.796;2023-02-13T02:15:32;71.80;;;33.10;;
52934;SDS011;38802;50.198;19.796;2023-02-13T02:18:00;72.60;;;33.70;;
52934;SDS011;38802;50.198;19.796;2023-02-13T02:48:55;65.50;;;32.40;;
52934;SDS011;38802;50.198;19.796;2023-02-13T02:51:53;67.80;;;34.00;;
52934;SDS011;38802;50.198;19.796;2023-02-13T02:54:31;63.20;;;32.20;;
52934;SDS011;38802;50.198;19.796;2023-02-13T02:57:28;73.70;;;31.90;;
52934;SDS011;38802;50.198;19.796;2023-02-13T03:00:20;64.70;;;30.90;;
52934;SDS011;38802;50.198;19.796;2023-02-13T03:03:13;74.20;;;34.40;;
52934;SDS011;38802;50.198;19.796;2023-02-13T03:06:05;75.80;;;33.10;;
52934;SDS011;38802;50.198;19.796;2023-02-13T03:08:57;74.00;;;32.90;;
52934;SDS011;38802;50.198;19.796;2023-02-13T03:11:48;81.80;;;33.50;;
52934;SDS011;38802;50.198;19.796;2023-02-13T03:14:38;65.00;;;32.50;;
52934;SDS011;38802;50.198;19.796;2023-02-13T03:17:08;67.10;;;31.80;;
52934;SDS011;38802;50.198;19.796;2023-02-13T03:34:09;59.80;;;30.00;;
52934;SDS011;38802;50.198;19.796;2023-02-13T03:36:44;57.80;;;27.90;;
52934;SDS011;38802;50.198;19.796;2023-02-13T03:40:02;57.30;;;27.70;;
52934;SDS011;38802;50.198;19.796;2023-02-13T03:42:40;58.50;;;27.80;;
52934;SDS011;38802;50.198;19.796;2023-02-13T03:45:17;46.00;;;26.00;;
52934;SDS011;38802;50.198;19.796;2023-02-13T03:48:08;44.30;;;25.80;;
52934;SDS011;38802;50.198;19.796;2023-02-13T03:50:58;44.90;;;25.00;;
52934;SDS011;38802;50.198;19.796;2023-02-13T03:53:29;53.30;;;28.90;;
52934;SDS011;38802;50.198;19.796;2023-02-13T03:56:02;46.40;;;25.80;;
52934;SDS011;38802;50.198;19.796;2023-02-13T03:58:52;45.50;;;26.60;;
52934;SDS011;38802;50.198;19.796;2023-02-13T04:01:49;48.80;;;25.80;;
52934;SDS011;38802;50.198;19.796;2023-02-13T04:07:06;46.50;;;25.80;;
52934;SDS011;38802;50.198;19.796;2023-02-13T04:09:39;44.40;;;25.00;;
52934;SDS011;38802;50.198;19.796;2023-02-13T04:17:48;41.00;;;23.40;;
52934;SDS011;38802;50.198;19.796;2023-02-13T04:20:21;41.70;;;23.50;;
52934;SDS011;38802;50.198;19.796;2023-02-13T04:22:54;41.90;;;22.00;;
52934;SDS011;38802;50.198;19.796;2023-02-13T04:25:21;40.50;;;23.40;;
52934;SDS011;38802;50.198;19.796;2023-02-13T04:27:51;37.60;;;23.40;;
52934;SDS011;38802;50.198;19.796;2023-02-13T04:30:19;43.40;;;23.20;;
52934;SDS011;38802;50.198;19.796;2023-02-13T04:32:47;43.00;;;23.80;;
52934;SDS011;38802;50.198;19.796;2023-02-13T04:35:16;41.30;;;23.70;;
52934;SDS011;38802;50.198;19.796;2023-02-13T04:37:44;39.20;;;23.20;;
52934;SDS011;38802;50.198;19.796;2023-02-13T04:40:12;39.10;;;22.10;;
52934;SDS011;38802;50.198;19.796;2023-02-13T04:42:41;45.10;;;24.00;;
52934;SDS011;38802;50.198;19.796;2023-02-13T04:45:09;38.60;;;22.40;;
52934;SDS011;38802;50.198;19.796;2023-02-13T04:47:37;40.30;;;22.70;;
52934;SDS011;38802;50.198;19.796;2023-02-13T04:50:05;35.60;;;20.50;;
52934;SDS011;38802;50.198;19.796;2023-02-13T04:52:34;37.20;;;20.10;;
52934;SDS011;38802;50.198;19.796;2023-02-13T04:55:02;37.60;;;20.50;;
52934;SDS011;38802;50.198;19.796;2023-02-13T04:57:30;33.50;;;20.80;;
52934;SDS011;38802;50.198;19.796;2023-02-13T04:59:58;32.60;;;19.90;;
52934;SDS011;38802;50.198;19.796;2023-02-13T05:02:26;34.70;;;20.30;;
52934;SDS011;38802;50.198;19.796;2023-02-13T05:04:54;33.00;;;20.20;;
52934;SDS011;38802;50.198;19.796;2023-02-13T05:07:22;34.40;;;19.20;;
52934;SDS011;38802;50.198;19.796;2023-02-13T05:09:50;41.90;;;22.80;;
52934;SDS011;38802;50.198;19.796;2023-02-13T05:12:18;38.30;;;20.90;;
52934;SDS011;38802;50.198;19.796;2023-02-13T05:14:46;33.70;;;20.00;;
52934;SDS011;38802;50.198;19.796;2023-02-13T05:17:14;36.70;;;21.50;;
52934;SDS011;38802;50.198;19.796;2023-02-13T05:19:43;43.20;;;22.40;;
52934;SDS011;38802;50.198;19.796;2023-02-13T05:22:11;39.30;;;20.60;;
52934;SDS011;38802;50.198;19.796;2023-02-13T05:27:25;33.70;;;18.60;;
52934;SDS011;38802;50.198;19.796;2023-02-13T05:29:53;36.50;;;19.80;;
52934;SDS011;38802;50.198;19.796;2023-02-13T05:32:21;35.60;;;19.70;;
52934;SDS011;38802;50.198;19.796;2023-02-13T05:34:49;34.30;;;20.00;;
52934;SDS011;38802;50.198;19.796;2023-02-13T05:37:17;33.90;;;19.00;;
52934;SDS011;38802;50.198;19.796;2023-02-13T05:39:45;33.30;;;17.80;;
52934;SDS011;38802;50.198;19.796;2023-02-13T05:42:13;32.30;;;18.40;;
52934;SDS011;38802;50.198;19.796;2023-02-13T05:44:41;34.90;;;18.90;;
52934;SDS011;38802;50.198;19.796;2023-02-13T05:47:09;32.90;;;18.90;;
52934;SDS011;38802;50.198;19.796;2023-02-13T05:49:37;34.40;;;18.90;;
52934;SDS011;38802;50.198;19.796;2023-02-13T05:52:05;38.00;;;18.90;;
52934;SDS011;38802;50.198;19.796;2023-02-13T05:54:34;39.00;;;19.90;;
52934;SDS011;38802;50.198;19.796;2023-02-13T05:57:05;34.50;;;19.60;;
52934;SDS011;38802;50.198;19.796;2023-02-13T05:59:33;36.90;;;21.40;;
52934;SDS011;38802;50.198;19.796;2023-02-13T06:02:01;34.80;;;19.80;;
52934;SDS011;38802;50.198;19.796;2023-02-13T06:04:29;39.90;;;20.10;;
52934;SDS011;38802;50.198;19.796;2023-02-13T06:06:57;42.40;;;21.10;;
52934;SDS011;38802;50.198;19.796;2023-02-13T06:09:25;37.30;;;19.70;;
52934;SDS011;38802;50.198;19.796;2023-02-13T06:11:53;31.10;;;18.50;;
52934;SDS011;38802;50.198;19.796;2023-02-13T06:14:21;37.30;;;19.70;;
52934;SDS011;38802;50.198;19.796;2023-02-13T06:16:49;36.10;;;19.70;;
52934;SDS011;38802;50.198;19.796;2023-02-13T06:19:17;36.60;;;19.30;;
52934;SDS011;38802;50.198;19.796;2023-02-13T06:21:45;35.10;;;22.00;;
52934;SDS011;38802;50.198;19.796;2023-02-13T06:24:13;38.80;;;20.00;;
52934;SDS011;38802;50.198;19.796;2023-02-13T06:26:41;38.40;;;20.70;;
52934;SDS011;38802;50.198;19.796;2023-02-13T06:29:09;40.00;;;22.40;;
52934;SDS011;38802;50.198;19.796;2023-02-13T06:31:39;37.30;;;22.20;;
52934;SDS011;38802;50.198;19.796;2023-02-13T06:34:07;42.00;;;23.20;;
52934;SDS011;38802;50.198;19.796;2023-02-13T06:36:36;36.80;;;20.70;;
52934;SDS011;38802;50.198;19.796;2023-02-13T06:39:05;37.80;;;20.00;;
52934;SDS011;38802;50.198;19.796;2023-02-13T06:41:33;35.50;;;21.00;;
52934;SDS011;38802;50.198;19.796;2023-02-13T06:44:01;38.30;;;19.40;;
52934;SDS011;38802;50.198;19.796;2023-02-13T06:46:29;44.70;;;21.70;;
52934;SDS011;38802;50.198;19.796;2023-02-13T06:48:57;41.30;;;21.90;;
52934;SDS011;38802;50.198;19.796;2023-02-13T06:51:25;48.90;;;25.00;;
52934;SDS011;38802;50.198;19.796;2023-02-13T06:53:53;41.90;;;23.40;;
52934;SDS011;38802;50.198;19.796;2023-02-13T06:56:21;34.50;;;20.80;;
52934;SDS011;38802;50.198;19.796;2023-02-13T06:58:49;44.50;;;24.30;;
52934;SDS011;38802;50.198;19.796;2023-02-13T07:01:17;38.40;;;21.70;;
52934;SDS011;38802;50.198;19.796;2023-02-13T07:03:45;43.00;;;21.60;;
52934;SDS011;38802;50.198;19.796;2023-02-13T07:06:19;49.10;;;25.10;;
52934;SDS011;38802;50.198;19.796;2023-02-13T07:08:47;48.10;;;25.00;;
52934;SDS011;38802;50.198;19.796;2023-02-13T07:11:18;50.60;;;24.70;;
52934;SDS011;38802;50.198;19.796;2023-02-13T07:13:48;48.70;;;25.90;;
52934;SDS011;38802;50.198;19.796;2023-02-13T07:16:17;47.30;;;25.00;;
52934;SDS011;38802;50.198;19.796;2023-02-13T07:18:45;52.80;;;25.70;;
52934;SDS011;38802;50.198;19.796;2023-02-13T07:21:13;48.30;;;25.00;;
52934;SDS011;38802;50.198;19.796;2023-02-13T07:23:41;51.00;;;26.40;;
52934;SDS011;38802;50.198;19.796;2023-02-13T07:26:09;65.60;;;27.50;;
52934;SDS011;38802;50.198;19.796;2023-02-13T07:28:37;53.40;;;25.80;;
52934;SDS011;38802;50.198;19.796;2023-02-13T07:31:05;61.50;;;27.40;;
52934;SDS011;38802;50.198;19.796;2023-02-13T07:33:34;62.10;;;27.90;;
52934;SDS011;38802;50.198;19.796;2023-02-13T07:36:03;50.00;;;26.00;;
52934;SDS011;38802;50.198;19.796;2023-02-13T07:38:31;65.30;;;29.60;;
52934;SDS011;38802;50.198;19.796;2023-02-13T07:41:03;64.30;;;29.10;;
52934;SDS011;38802;50.198;19.796;2023-02-13T07:43:31;60.90;;;27.90;;
52934;SDS011;38802;50.198;19.796;2023-02-13T07:46:00;65.80;;;29.00;;
52934;SDS011;38802;50.198;19.796;2023-02-13T07:48:30;62.90;;;29.20;;
52934;SDS011;38802;50.198;19.796;2023-02-13T07:50:58;66.30;;;28.90;;
52934;SDS011;38802;50.198;19.796;2023-02-13T07:53:28;64.00;;;29.10;;
52934;SDS011;38802;50.198;19.796;2023-02-13T07:55:57;56.90;;;28.10;;
52934;SDS011;38802;50.198;19.796;2023-02-13T07:58:25;61.00;;;28.80;;
52934;SDS011;38802;50.198;19.796;2023-02-13T08:00:53;64.20;;;30.60;;
52934;SDS011;38802;50.198;19.796;2023-02-13T08:03:21;65.90;;;29.60;;
52934;SDS011;38802;50.198;19.796;2023-02-13T08:05:49;54.90;;;27.20;;
52934;SDS011;38802;50.198;19.796;2023-02-13T08:08:17;61.50;;;28.10;;
52934;SDS011;38802;50.198;19.796;2023-02-13T08:10:45;56.40;;;27.70;;
52934;SDS011;38802;50.198;19.796;2023-02-13T08:13:32;59.80;;;29.10;;
52934;SDS011;38802;50.198;19.796;2023-02-13T08:16:00;54.00;;;27.10;;
52934;SDS011;38802;50.198;19.796;2023-02-13T08:18:28;56.20;;;26.50;;
52934;SDS011;38802;50.198;19.796;2023-02-13T08:20:56;57.60;;;25.90;;
52934;SDS011;38802;50.198;19.796;2023-02-13T08:23:24;57.40;;;26.30;;
52934;SDS011;38802;50.198;19.796;2023-02-13T08:25:52;50.90;;;25.00;;
52934;SDS011;38802;50.198;19.796;2023-02-13T08:28:22;62.70;;;27.30;;
52934;SDS011;38802;50.198;19.796;2023-02-13T08:30:50;52.70;;;25.80;;
52934;SDS011;38802;50.198;19.796;2023-02-13T08:33:18;56.60;;;27.30;;
52934;SDS011;38802;50.198;19.796;2023-02-13T08:35:46;55.20;;;25.60;;
52934;SDS011;38802;50.198;19.796;2023-02-13T08:38:15;53.10;;;26.90;;
52934;SDS011;38802;50.198;19.796;2023-02-13T08:40:43;54.20;;;27.10;;
52934;SDS011;38802;50.198;19.796;2023-02-13T08:43:11;53.10;;;27.50;;
52934;SDS011;38802;50.198;19.796;2023-02-13T08:45:39;58.00;;;27.40;;
52934;SDS011;38802;50.198;19.796;2023-02-13T08:48:07;52.70;;;28.00;;
52934;SDS011;38802;50.198;19.796;2023-02-13T08:50:35;58.30;;;28.30;;
52934;SDS011;38802;50.198;19.796;2023-02-13T08:53:04;57.80;;;28.10;;
52934;SDS011;38802;50.198;19.796;2023-02-13T08:55:32;58.40;;;27.90;;
52934;SDS011;38802;50.198;19.796;2023-02-13T08:58:02;53.10;;;26.80;;
52934;SDS011;38802;50.198;19.796;2023-02-13T09:00:30;51.80;;;25.80;;
52934;SDS011;38802;50.198;19.796;2023-02-13T09:03:02;53.80;;;26.80;;
52934;SDS011;38802;50.198;19.796;2023-02-13T09:05:31;58.80;;;27.10;;
52934;SDS011;38802;50.198;19.796;2023-02-13T09:08:00;64.20;;;28.30;;
52934;SDS011;38802;50.198;19.796;2023-02-13T09:10:30;54.90;;;26.80;;
52934;SDS011;38802;50.198;19.796;2023-02-13T09:12:59;60.70;;;27.90;;
52934;SDS011;38802;50.198;19.796;2023-02-13T09:15:28;67.70;;;30.70;;
52934;SDS011;38802;50.198;19.796;2023-02-13T09:17:57;63.30;;;28.80;;
52934;SDS011;38802;50.198;19.796;2023-02-13T09:20:25;56.90;;;27.90;;
52934;SDS011;38802;50.198;19.796;2023-02-13T09:22:53;68.70;;;32.50;;
52934;SDS011;38802;50.198;19.796;2023-02-13T09:25:24;60.10;;;30.00;;
52934;SDS011;38802;50.198;19.796;2023-02-13T09:27:52;65.10;;;30.30;;
52934;SDS011;38802;50.198;19.796;2023-02-13T09:30:20;60.90;;;28.20;;
52934;SDS011;38802;50.198;19.796;2023-02-13T09:32:52;61.20;;;29.30;;
52934;SDS011;38802;50.198;19.796;2023-02-13T09:35:21;62.10;;;28.10;;
52934;SDS011;38802;50.198;19.796;2023-02-13T09:37:49;61.30;;;29.00;;
52934;SDS011;38802;50.198;19.796;2023-02-13T09:40:28;63.40;;;30.30;;
52934;SDS011;38802;50.198;19.796;2023-02-13T09:43:07;70.20;;;29.30;;
52934;SDS011;38802;50.198;19.796;2023-02-13T09:45:42;65.90;;;29.70;;
52934;SDS011;38802;50.198;19.796;2023-02-13T09:48:15;61.00;;;26.80;;
52934;SDS011;38802;50.198;19.796;2023-02-13T09:50:49;50.30;;;24.90;;
52934;SDS011;38802;50.198;19.796;2023-02-13T09:53:21;53.50;;;25.80;;
52934;SDS011;38802;50.198;19.796;2023-02-13T09:58:35;61.20;;;25.40;;
52934;SDS011;38802;50.198;19.796;2023-02-13T10:01:14;48.40;;;26.80;;
52934;SDS011;38802;50.198;19.796;2023-02-13T10:07:09;46.30;;;23.90;;
52934;SDS011;38802;50.198;19.796;2023-02-13T10:09:57;52.30;;;25.90;;
52934;SDS011;38802;50.198;19.796;2023-02-13T10:15:21;55.40;;;25.20;;
52934;SDS011;38802;50.198;19.796;2023-02-13T10:18:02;48.70;;;25.80;;
52934;SDS011;38802;50.198;19.796;2023-02-13T10:20:39;59.10;;;28.50;;
52934;SDS011;38802;50.198;19.796;2023-02-13T10:23:36;64.90;;;28.60;;
52934;SDS011;38802;50.198;19.796;2023-02-13T10:26:18;59.00;;;28.60;;
52934;SDS011;38802;50.198;19.796;2023-02-13T10:28:55;52.90;;;27.00;;
52934;SDS011;38802;50.198;19.796;2023-02-13T10:31:46;55.30;;;28.30;;
52934;SDS011;38802;50.198;19.796;2023-02-13T10:34:17;50.30;;;28.20;;
52934;SDS011;38802;50.198;19.796;2023-02-13T10:36:51;52.40;;;26.90;;
52934;SDS011;38802;50.198;19.796;2023-02-13T10:39:27;44.20;;;25.40;;
52934;SDS011;38802;50.198;19.796;2023-02-13T10:53:04;46.70;;;25.50;;
52934;SDS011;38802;50.198;19.796;2023-02-13T10:58:26;46.20;;;26.80;;
52934;SDS011;38802;50.198;19.796;2023-02-13T11:01:05;51.90;;;28.90;;
52934;SDS011;38802;50.198;19.796;2023-02-13T11:03:41;55.00;;;29.00;;
52934;SDS011;38802;50.198;19.796;2023-02-13T11:06:11;47.90;;;26.60;;
52934;SDS011;38802;50.198;19.796;2023-02-13T11:08:44;49.80;;;29.00;;
52934;SDS011;38802;50.198;19.796;2023-02-13T11:11:35;53.00;;;27.90;;
52934;SDS011;38802;50.198;19.796;2023-02-13T11:14:17;53.20;;;29.00;;
52934;SDS011;38802;50.198;19.796;2023-02-13T11:17:00;42.60;;;26.40;;
52934;SDS011;38802;50.198;19.796;2023-02-13T11:19:31;45.80;;;26.20;;
52934;SDS011;38802;50.198;19.796;2023-02-13T11:22:04;36.90;;;22.90;;
52934;SDS011;38802;50.198;19.796;2023-02-13T11:24:57;33.30;;;21.30;;
52934;SDS011;38802;50.198;19.796;2023-02-13T11:27:32;34.30;;;22.10;;
52934;SDS011;38802;50.198;19.796;2023-02-13T11:30:04;39.40;;;24.00;;
52934;SDS011;38802;50.198;19.796;2023-02-13T11:32:34;30.10;;;18.90;;
52934;SDS011;38802;50.198;19.796;2023-02-13T11:40:51;25.20;;;16.10;;
52934;SDS011;38802;50.198;19.796;2023-02-13T11:43:42;22.70;;;14.00;;
52934;SDS011;38802;50.198;19.796;2023-02-13T11:46:24;18.50;;;12.70;;
52934;SDS011;38802;50.198;19.796;2023-02-13T11:49:01;18.50;;;12.20;;
52934;SDS011;38802;50.198;19.796;2023-02-13T11:51:34;12.10;;;10.60;;
52934;SDS011;38802;50.198;19.796;2023-02-13T11:54:02;14.30;;;11.80;;
52934;SDS011;38802;50.198;19.796;2023-02-13T11:56:45;16.10;;;11.30;;
52934;SDS011;38802;50.198;19.796;2023-02-13T11:59:32;18.50;;;11.90;;
52934;SDS011;38802;50.198;19.796;2023-02-13T12:04:41;14.20;;;10.80;;
52934;SDS011;38802;50.198;19.796;2023-02-13T12:07:18;11.50;;;9.40;;
52934;SDS011;38802;50.198;19.796;2023-02-13T12:09:48;10.40;;;8.90;;
52934;SDS011;38802;50.198;19.796;2023-02-13T12:12:26;12.50;;;9.60;;
52934;SDS011;38802;50.198;19.796;2023-02-13T12:15:01;14.20;;;10.20;;
52934;SDS011;38802;50.198;19.796;2023-02-13T12:17:37;10.90;;;9.90;;
52934;SDS011;38802;50.198;19.796;2023-02-13T12:20:11;15.50;;;10.50;;
52934;SDS011;38802;50.198;19.796;2023-02-13T12:25:28;15.00;;;10.10;;
52934;SDS011;38802;50.198;19.796;2023-02-13T12:28:15;12.70;;;9.60;;
52934;SDS011;38802;50.198;19.796;2023-02-13T12:39:14;10.00;;;8.80;;
52934;SDS011;38802;50.198;19.796;2023-02-13T12:47:26;11.70;;;10.40;;
52934;SDS011;38802;50.198;19.796;2023-02-13T12:50:01;13.70;;;12.00;;
52934;SDS011;38802;50.198;19.796;2023-02-13T12:58:29;13.50;;;11.80;;
52934;SDS011;38802;50.198;19.796;2023-02-13T13:22:05;15.40;;;13.10;;
52934;SDS011;38802;50.198;19.796;2023-02-13T13:27:21;21.60;;;14.10;;
52934;SDS011;38802;50.198;19.796;2023-02-13T13:32:29;20.40;;;14.30;;
52934;SDS011;38802;50.198;19.796;2023-02-13T13:34:59;18.50;;;12.40;;
52934;SDS011;38802;50.198;19.796;2023-02-13T13:38:03;23.50;;;13.70;;
52934;SDS011;38802;50.198;19.796;2023-02-13T13:40:51;15.40;;;13.00;;
52934;SDS011;38802;50.198;19.796;2023-02-13T13:43:39;17.60;;;13.10;;
52934;SDS011;38802;50.198;19.796;2023-02-13T13:46:37;19.00;;;13.50;;
52934;SDS011;38802;50.198;19.796;2023-02-13T13:49:37;18.30;;;13.00;;
52934;SDS011;38802;50.198;19.796;2023-02-13T13:54:55;15.60;;;11.80;;
52934;SDS011;38802;50.198;19.796;2023-02-13T14:02:43;15.80;;;11.90;;
52934;SDS011;38802;50.198;19.796;2023-02-13T14:08:00;20.80;;;14.00;;
52934;SDS011;38802;50.198;19.796;2023-02-13T14:12:59;18.70;;;15.70;;
52934;SDS011;38802;50.198;19.796;2023-02-13T14:22:47;22.00;;;16.50;;
52934;SDS011;38802;50.198;19.796;2023-02-13T14:27:57;24.80;;;17.00;;
52934;SDS011;38802;50.198;19.796;2023-02-13T14:30:27;21.00;;;16.90;;
52934;SDS011;38802;50.198;19.796;2023-02-13T14:32:59;21.20;;;16.30;;
52934;SDS011;38802;50.198;19.796;2023-02-13T14:35:31;27.10;;;18.10;;
52934;SDS011;38802;50.198;19.796;2023-02-13T14:38:03;24.30;;;17.80;;
52934;SDS011;38802;50.198;19.796;2023-02-13T14:45:50;28.30;;;20.10;;
52934;SDS011;38802;50.198;19.796;2023-02-13T14:48:21;25.20;;;18.40;;
52934;SDS011;38802;50.198;19.796;2023-02-13T14:51:00;27.30;;;18.20;;
52934;SDS011;38802;50.198;19.796;2023-02-13T14:53:30;29.10;;;20.40;;
52934;SDS011;38802;50.198;19.796;2023-02-13T14:56:07;29.80;;;19.30;;
52934;SDS011;38802;50.198;19.796;2023-02-13T14:58:46;26.00;;;19.40;;
52934;SDS011;38802;50.198;19.796;2023-02-13T15:03:56;21.00;;;15.10;;
52934;SDS011;38802;50.198;19.796;2023-02-13T15:06:29;12.90;;;10.00;;
52934;SDS011;38802;50.198;19.796;2023-02-13T15:17:36;14.40;;;9.90;;
52934;SDS011;38802;50.198;19.796;2023-02-13T15:22:46;10.70;;;9.00;;
52934;SDS011;38802;50.198;19.796;2023-02-13T15:25:23;10.50;;;8.80;;
52934;SDS011;38802;50.198;19.796;2023-02-13T15:27:57;10.80;;;8.80;;
52934;SDS011;38802;50.198;19.796;2023-02-13T15:30:26;15.10;;;10.50;;
52934;SDS011;38802;50.198;19.796;2023-02-13T15:32:56;12.70;;;9.40;;
52934;SDS011;38802;50.198;19.796;2023-02-13T15:35:31;10.90;;;9.80;;
52934;SDS011;38802;50.198;19.796;2023-02-13T15:37:59;12.60;;;11.30;;
52934;SDS011;38802;50.198;19.796;2023-02-13T15:40:46;14.00;;;10.40;;
52934;SDS011;38802;50.198;19.796;2023-02-13T15:46:18;13.10;;;11.40;;
52934;SDS011;38802;50.198;19.796;2023-02-13T15:48:47;16.70;;;11.80;;
52934;SDS011;38802;50.198;19.796;2023-02-13T15:51:21;16.80;;;12.00;;
52934;SDS011;38802;50.198;19.796;2023-02-13T15:53:53;13.30;;;11.50;;
52934;SDS011;38802;50.198;19.796;2023-02-13T15:56:21;16.60;;;11.60;;
52934;SDS011;38802;50.198;19.796;2023-02-13T15:58:49;13.40;;;11.20;;
52934;SDS011;38802;50.198;19.796;2023-02-13T16:01:17;14.80;;;10.90;;
52934;SDS011;38802;50.198;19.796;2023-02-13T16:03:45;14.30;;;11.10;;
52934;SDS011;38802;50.198;19.796;2023-02-13T16:06:18;14.50;;;10.80;;
52934;SDS011;38802;50.198;19.796;2023-02-13T16:08:53;16.60;;;12.20;;
52934;SDS011;38802;50.198;19.796;2023-02-13T16:11:23;13.40;;;11.90;;
52934;SDS011;38802;50.198;19.796;2023-02-13T16:14:03;17.40;;;13.30;;
52934;SDS011;38802;50.198;19.796;2023-02-13T16:16:52;15.10;;;12.70;;
52934;SDS011;38802;50.198;19.796;2023-02-13T16:21:49;15.10;;;10.80;;
52934;SDS011;38802;50.198;19.796;2023-02-13T16:24:18;18.50;;;12.00;;
52934;SDS011;38802;50.198;19.796;2023-02-13T16:26:46;10.90;;;9.50;;
52934;SDS011;38802;50.198;19.796;2023-02-13T16:29:18;9.70;;;8.60;;
52934;SDS011;38802;50.198;19.796;2023-02-13T16:31:49;11.20;;;9.90;;
52934;SDS011;38802;50.198;19.796;2023-02-13T16:34:27;11.40;;;9.90;;
52934;SDS011;38802;50.198;19.796;2023-02-13T16:36:56;12.00;;;10.80;;
52934;SDS011;38802;50.198;19.796;2023-02-13T16:39:31;12.60;;;10.00;;
52934;SDS011;38802;50.198;19.796;2023-02-13T16:41:59;13.30;;;11.10;;
52934;SDS011;38802;50.198;19.796;2023-02-13T16:44:38;14.20;;;10.90;;
52934;SDS011;38802;50.198;19.796;2023-02-13T16:47:04;14.90;;;11.50;;
52934;SDS011;38802;50.198;19.796;2023-02-13T16:49:35;18.10;;;12.60;;
52934;SDS011;38802;50.198;19.796;2023-02-13T16:52:19;16.30;;;13.20;;
52934;SDS011;38802;50.198;19.796;2023-02-13T16:54:58;18.10;;;12.90;;
52934;SDS011;38802;50.198;19.796;2023-02-13T16:57:28;18.70;;;14.10;;
52934;SDS011;38802;50.198;19.796;2023-02-13T17:02:35;19.00;;;15.60;;
52934;SDS011;38802;50.198;19.796;2023-02-13T17:10:06;22.20;;;17.60;;
52934;SDS011;38802;50.198;19.796;2023-02-13T17:12:43;20.10;;;15.30;;
52934;SDS011;38802;50.198;19.796;2023-02-13T17:15:11;20.60;;;15.50;;
52934;SDS011;38802;50.198;19.796;2023-02-13T17:17:42;20.00;;;15.30;;
52934;SDS011;38802;50.198;19.796;2023-02-13T17:20:17;18.90;;;14.90;;
52934;SDS011;38802;50.198;19.796;2023-02-13T17:22:50;20.80;;;15.30;;
52934;SDS011;38802;50.198;19.796;2023-02-13T17:35:12;22.30;;;17.10;;
52934;SDS011;38802;50.198;19.796;2023-02-13T17:37:40;29.90;;;18.70;;
52934;SDS011;38802;50.198;19.796;2023-02-13T17:40:19;31.10;;;21.60;;
52934;SDS011;38802;50.198;19.796;2023-02-13T17:42:52;29.50;;;19.10;;
52934;SDS011;38802;50.198;19.796;2023-02-13T17:45:21;36.30;;;20.60;;
52934;SDS011;38802;50.198;19.796;2023-02-13T17:47:49;31.50;;;19.40;;
52934;SDS011;38802;50.198;19.796;2023-02-13T17:50:16;31.40;;;19.20;;
52934;SDS011;38802;50.198;19.796;2023-02-13T17:52:43;24.10;;;17.50;;
52934;SDS011;38802;50.198;19.796;2023-02-13T17:57:47;28.40;;;17.40;;
52934;SDS011;38802;50.198;19.796;2023-02-13T18:00:15;28.90;;;17.60;;
52934;SDS011;38802;50.198;19.796;2023-02-13T18:02:43;29.40;;;18.30;;